Aviation Digital Data Service (ADDS)

Output produced by METARs form (0058 UTC 24 May 2022)
found at http://www.aviationweather.gov/metar/data/
 
VQPR 240030Z 02005KT 6000 FEW010 SCT025 BKN050 11/08 Q1021